sensor_id;sensor_type;location;lat;lon;timestamp;P1;durP1;ratioP1;P2;durP2;ratioP2
30307;SDS011;17114;52.314;8.910;2022-08-07T00:01:15;4.95;;;3.25;;
30307;SDS011;17114;52.314;8.910;2022-08-07T00:04:05;4.97;;;3.03;;
30307;SDS011;17114;52.314;8.910;2022-08-07T00:06:36;5.38;;;3.75;;
30307;SDS011;17114;52.314;8.910;2022-08-07T00:09:17;4.53;;;3.00;;
30307;SDS011;17114;52.314;8.910;2022-08-07T00:11:49;5.10;;;2.80;;
30307;SDS011;17114;52.314;8.910;2022-08-07T00:14:24;5.28;;;3.63;;
30307;SDS011;17114;52.314;8.910;2022-08-07T00:16:56;4.90;;;3.50;;
30307;SDS011;17114;52.314;8.910;2022-08-07T00:19:24;6.28;;;3.47;;
30307;SDS011;17114;52.314;8.910;2022-08-07T00:22:13;5.45;;;3.08;;
30307;SDS011;17114;52.314;8.910;2022-08-07T00:25:04;4.85;;;3.40;;
30307;SDS011;17114;52.314;8.910;2022-08-07T00:27:42;5.97;;;3.88;;
30307;SDS011;17114;52.314;8.910;2022-08-07T00:30:22;5.18;;;3.35;;
30307;SDS011;17114;52.314;8.910;2022-08-07T00:32:53;5.82;;;3.28;;
30307;SDS011;17114;52.314;8.910;2022-08-07T00:35:24;7.13;;;3.50;;
30307;SDS011;17114;52.314;8.910;2022-08-07T00:37:51;7.93;;;4.30;;
30307;SDS011;17114;52.314;8.910;2022-08-07T00:40:19;4.60;;;3.22;;
30307;SDS011;17114;52.314;8.910;2022-08-07T00:43:05;6.43;;;3.70;;
30307;SDS011;17114;52.314;8.910;2022-08-07T00:45:56;5.20;;;3.38;;
30307;SDS011;17114;52.314;8.910;2022-08-07T00:48:27;9.25;;;3.95;;
30307;SDS011;17114;52.314;8.910;2022-08-07T00:50:57;5.55;;;3.40;;
30307;SDS011;17114;52.314;8.910;2022-08-07T00:53:28;5.57;;;3.38;;
30307;SDS011;17114;52.314;8.910;2022-08-07T00:56:04;7.18;;;3.95;;
30307;SDS011;17114;52.314;8.910;2022-08-07T00:58:42;5.38;;;4.10;;
30307;SDS011;17114;52.314;8.910;2022-08-07T01:01:14;7.38;;;4.13;;
30307;SDS011;17114;52.314;8.910;2022-08-07T01:03:43;6.60;;;3.88;;
30307;SDS011;17114;52.314;8.910;2022-08-07T01:06:22;5.00;;;3.95;;
30307;SDS011;17114;52.314;8.910;2022-08-07T01:08:50;4.68;;;3.63;;
30307;SDS011;17114;52.314;8.910;2022-08-07T01:11:21;6.00;;;4.20;;
30307;SDS011;17114;52.314;8.910;2022-08-07T01:14:08;5.00;;;3.80;;
30307;SDS011;17114;52.314;8.910;2022-08-07T01:16:36;5.10;;;3.67;;
30307;SDS011;17114;52.314;8.910;2022-08-07T01:19:06;7.35;;;3.83;;
30307;SDS011;17114;52.314;8.910;2022-08-07T01:21:45;11.30;;;4.63;;
30307;SDS011;17114;52.314;8.910;2022-08-07T01:24:14;5.85;;;3.80;;
30307;SDS011;17114;52.314;8.910;2022-08-07T01:26:47;7.32;;;4.18;;
30307;SDS011;17114;52.314;8.910;2022-08-07T01:29:17;4.82;;;3.42;;
30307;SDS011;17114;52.314;8.910;2022-08-07T01:31:47;6.32;;;3.60;;
30307;SDS011;17114;52.314;8.910;2022-08-07T01:34:15;5.60;;;4.03;;
30307;SDS011;17114;52.314;8.910;2022-08-07T01:36:55;4.30;;;3.50;;
30307;SDS011;17114;52.314;8.910;2022-08-07T01:39:24;5.15;;;3.72;;
30307;SDS011;17114;52.314;8.910;2022-08-07T01:42:11;5.38;;;3.72;;
30307;SDS011;17114;52.314;8.910;2022-08-07T01:44:59;4.85;;;3.67;;
30307;SDS011;17114;52.314;8.910;2022-08-07T01:47:28;5.47;;;4.32;;
30307;SDS011;17114;52.314;8.910;2022-08-07T01:50:15;6.63;;;4.07;;
30307;SDS011;17114;52.314;8.910;2022-08-07T01:52:55;5.43;;;4.25;;
30307;SDS011;17114;52.314;8.910;2022-08-07T01:55:27;4.88;;;3.60;;
30307;SDS011;17114;52.314;8.910;2022-08-07T01:57:59;4.63;;;3.63;;
30307;SDS011;17114;52.314;8.910;2022-08-07T02:00:52;6.30;;;3.97;;
30307;SDS011;17114;52.314;8.910;2022-08-07T02:03:44;5.53;;;3.90;;
30307;SDS011;17114;52.314;8.910;2022-08-07T02:06:18;7.70;;;4.32;;
30307;SDS011;17114;52.314;8.910;2022-08-07T02:08:58;7.72;;;4.38;;
30307;SDS011;17114;52.314;8.910;2022-08-07T02:11:34;6.57;;;3.80;;
30307;SDS011;17114;52.314;8.910;2022-08-07T02:14:25;5.65;;;3.72;;
30307;SDS011;17114;52.314;8.910;2022-08-07T02:17:05;6.43;;;4.05;;
30307;SDS011;17114;52.314;8.910;2022-08-07T02:19:33;5.30;;;4.13;;
30307;SDS011;17114;52.314;8.910;2022-08-07T02:22:22;5.10;;;4.25;;
30307;SDS011;17114;52.314;8.910;2022-08-07T02:24:53;7.57;;;4.50;;
30307;SDS011;17114;52.314;8.910;2022-08-07T02:27:21;6.40;;;4.82;;
30307;SDS011;17114;52.314;8.910;2022-08-07T02:29:50;9.65;;;4.57;;
30307;SDS011;17114;52.314;8.910;2022-08-07T02:32:20;5.80;;;4.43;;
30307;SDS011;17114;52.314;8.910;2022-08-07T02:37:23;5.40;;;4.38;;
30307;SDS011;17114;52.314;8.910;2022-08-07T02:39:59;9.02;;;5.10;;
30307;SDS011;17114;52.314;8.910;2022-08-07T02:42:49;7.70;;;5.05;;
30307;SDS011;17114;52.314;8.910;2022-08-07T02:45:18;5.93;;;4.55;;
30307;SDS011;17114;52.314;8.910;2022-08-07T02:48:08;6.60;;;4.93;;
30307;SDS011;17114;52.314;8.910;2022-08-07T02:50:41;7.65;;;5.25;;
30307;SDS011;17114;52.314;8.910;2022-08-07T02:53:23;7.72;;;4.55;;
30307;SDS011;17114;52.314;8.910;2022-08-07T02:56:03;7.38;;;4.70;;
30307;SDS011;17114;52.314;8.910;2022-08-07T02:58:42;8.52;;;5.63;;
30307;SDS011;17114;52.314;8.910;2022-08-07T03:01:12;6.82;;;4.80;;
30307;SDS011;17114;52.314;8.910;2022-08-07T03:03:44;7.53;;;4.70;;
30307;SDS011;17114;52.314;8.910;2022-08-07T03:06:15;6.00;;;4.53;;
30307;SDS011;17114;52.314;8.910;2022-08-07T03:08:58;8.70;;;5.10;;
30307;SDS011;17114;52.314;8.910;2022-08-07T03:11:26;6.95;;;4.80;;
30307;SDS011;17114;52.314;8.910;2022-08-07T03:13:58;8.63;;;5.57;;
30307;SDS011;17114;52.314;8.910;2022-08-07T03:16:28;5.90;;;4.57;;
30307;SDS011;17114;52.314;8.910;2022-08-07T03:18:57;6.05;;;4.82;;
30307;SDS011;17114;52.314;8.910;2022-08-07T03:21:26;8.43;;;5.47;;
30307;SDS011;17114;52.314;8.910;2022-08-07T03:23:58;6.97;;;4.85;;
30307;SDS011;17114;52.314;8.910;2022-08-07T03:26:45;6.50;;;4.78;;
30307;SDS011;17114;52.314;8.910;2022-08-07T03:29:26;7.13;;;4.32;;
30307;SDS011;17114;52.314;8.910;2022-08-07T03:32:02;6.63;;;5.13;;
30307;SDS011;17114;52.314;8.910;2022-08-07T03:34:32;8.05;;;5.50;;
30307;SDS011;17114;52.314;8.910;2022-08-07T03:37:12;6.15;;;4.78;;
30307;SDS011;17114;52.314;8.910;2022-08-07T03:39:43;6.65;;;4.95;;
30307;SDS011;17114;52.314;8.910;2022-08-07T03:42:33;7.80;;;4.53;;
30307;SDS011;17114;52.314;8.910;2022-08-07T03:45:01;6.78;;;4.78;;
30307;SDS011;17114;52.314;8.910;2022-08-07T03:47:30;6.38;;;4.70;;
30307;SDS011;17114;52.314;8.910;2022-08-07T03:50:17;7.93;;;5.30;;
30307;SDS011;17114;52.314;8.910;2022-08-07T03:52:50;7.88;;;5.38;;
30307;SDS011;17114;52.314;8.910;2022-08-07T03:55:18;9.98;;;5.65;;
30307;SDS011;17114;52.314;8.910;2022-08-07T03:57:46;9.70;;;5.03;;
30307;SDS011;17114;52.314;8.910;2022-08-07T04:00:34;5.55;;;4.50;;
30307;SDS011;17114;52.314;8.910;2022-08-07T04:03:11;6.47;;;5.13;;
30307;SDS011;17114;52.314;8.910;2022-08-07T04:05:39;9.95;;;5.65;;
30307;SDS011;17114;52.314;8.910;2022-08-07T04:08:08;7.40;;;4.97;;
30307;SDS011;17114;52.314;8.910;2022-08-07T04:10:38;8.27;;;5.00;;
30307;SDS011;17114;52.314;8.910;2022-08-07T04:13:10;6.70;;;4.88;;
30307;SDS011;17114;52.314;8.910;2022-08-07T04:15:40;9.73;;;5.10;;
30307;SDS011;17114;52.314;8.910;2022-08-07T04:18:13;8.43;;;5.00;;
30307;SDS011;17114;52.314;8.910;2022-08-07T04:21:01;7.57;;;4.47;;
30307;SDS011;17114;52.314;8.910;2022-08-07T04:23:32;10.55;;;5.43;;
30307;SDS011;17114;52.314;8.910;2022-08-07T04:26:20;7.00;;;4.95;;
30307;SDS011;17114;52.314;8.910;2022-08-07T04:28:47;5.53;;;4.50;;
30307;SDS011;17114;52.314;8.910;2022-08-07T04:31:15;6.35;;;4.80;;
30307;SDS011;17114;52.314;8.910;2022-08-07T04:33:45;6.50;;;4.97;;
30307;SDS011;17114;52.314;8.910;2022-08-07T04:36:20;6.50;;;5.20;;
30307;SDS011;17114;52.314;8.910;2022-08-07T04:38:51;9.65;;;6.40;;
30307;SDS011;17114;52.314;8.910;2022-08-07T04:41:19;10.57;;;5.55;;
30307;SDS011;17114;52.314;8.910;2022-08-07T04:43:47;7.22;;;5.72;;
30307;SDS011;17114;52.314;8.910;2022-08-07T04:46:41;7.57;;;5.68;;
30307;SDS011;17114;52.314;8.910;2022-08-07T05:01:39;7.80;;;5.60;;
30307;SDS011;17114;52.314;8.910;2022-08-07T05:04:17;8.60;;;5.18;;
30307;SDS011;17114;52.314;8.910;2022-08-07T05:07:14;6.43;;;4.70;;
30307;SDS011;17114;52.314;8.910;2022-08-07T05:10:06;7.75;;;4.80;;
30307;SDS011;17114;52.314;8.910;2022-08-07T05:12:41;5.63;;;4.30;;
30307;SDS011;17114;52.314;8.910;2022-08-07T05:15:23;7.22;;;4.05;;
30307;SDS011;17114;52.314;8.910;2022-08-07T05:18:04;9.45;;;4.38;;
30307;SDS011;17114;52.314;8.910;2022-08-07T05:20:39;9.13;;;5.13;;
30307;SDS011;17114;52.314;8.910;2022-08-07T05:23:54;7.87;;;4.80;;
30307;SDS011;17114;52.314;8.910;2022-08-07T05:26:23;6.20;;;4.82;;
30307;SDS011;17114;52.314;8.910;2022-08-07T05:28:55;8.77;;;5.35;;
30307;SDS011;17114;52.314;8.910;2022-08-07T05:31:24;7.05;;;4.30;;
30307;SDS011;17114;52.314;8.910;2022-08-07T05:34:03;6.00;;;4.80;;
30307;SDS011;17114;52.314;8.910;2022-08-07T05:36:42;6.10;;;4.63;;
30307;SDS011;17114;52.314;8.910;2022-08-07T05:39:18;9.02;;;5.03;;
30307;SDS011;17114;52.314;8.910;2022-08-07T05:42:06;8.20;;;5.40;;
30307;SDS011;17114;52.314;8.910;2022-08-07T05:44:37;8.05;;;5.47;;
30307;SDS011;17114;52.314;8.910;2022-08-07T05:47:18;8.93;;;5.53;;
30307;SDS011;17114;52.314;8.910;2022-08-07T05:50:03;9.65;;;5.25;;
30307;SDS011;17114;52.314;8.910;2022-08-07T05:52:31;10.65;;;5.50;;
30307;SDS011;17114;52.314;8.910;2022-08-07T05:54:58;8.27;;;5.22;;
30307;SDS011;17114;52.314;8.910;2022-08-07T05:57:36;11.90;;;6.22;;
30307;SDS011;17114;52.314;8.910;2022-08-07T06:00:07;9.82;;;5.57;;
30307;SDS011;17114;52.314;8.910;2022-08-07T06:02:42;8.83;;;6.70;;
30307;SDS011;17114;52.314;8.910;2022-08-07T06:05:13;9.98;;;6.65;;
30307;SDS011;17114;52.314;8.910;2022-08-07T06:07:41;10.25;;;6.50;;
30307;SDS011;17114;52.314;8.910;2022-08-07T06:10:29;10.52;;;6.95;;
30307;SDS011;17114;52.314;8.910;2022-08-07T06:12:56;9.90;;;7.05;;
30307;SDS011;17114;52.314;8.910;2022-08-07T06:15:28;10.00;;;7.10;;
30307;SDS011;17114;52.314;8.910;2022-08-07T06:18:08;10.43;;;6.47;;
30307;SDS011;17114;52.314;8.910;2022-08-07T06:20:37;10.23;;;6.30;;
30307;SDS011;17114;52.314;8.910;2022-08-07T06:23:24;8.73;;;6.40;;
30307;SDS011;17114;52.314;8.910;2022-08-07T06:26:12;12.02;;;6.75;;
30307;SDS011;17114;52.314;8.910;2022-08-07T06:28:50;12.82;;;6.68;;
30307;SDS011;17114;52.314;8.910;2022-08-07T06:31:18;11.68;;;6.80;;
30307;SDS011;17114;52.314;8.910;2022-08-07T06:33:49;11.13;;;7.10;;
30307;SDS011;17114;52.314;8.910;2022-08-07T06:36:17;12.43;;;6.88;;
30307;SDS011;17114;52.314;8.910;2022-08-07T06:39:01;10.63;;;6.60;;
30307;SDS011;17114;52.314;8.910;2022-08-07T06:41:52;10.88;;;6.57;;
30307;SDS011;17114;52.314;8.910;2022-08-07T06:44:34;9.50;;;6.18;;
30307;SDS011;17114;52.314;8.910;2022-08-07T06:47:05;10.25;;;6.32;;
30307;SDS011;17114;52.314;8.910;2022-08-07T06:49:41;9.20;;;6.80;;
30307;SDS011;17114;52.314;8.910;2022-08-07T06:52:23;12.30;;;6.55;;
30307;SDS011;17114;52.314;8.910;2022-08-07T06:55:03;9.65;;;6.32;;
30307;SDS011;17114;52.314;8.910;2022-08-07T06:57:54;10.65;;;6.60;;
30307;SDS011;17114;52.314;8.910;2022-08-07T07:00:26;9.27;;;5.68;;
30307;SDS011;17114;52.314;8.910;2022-08-07T07:02:56;9.27;;;6.20;;
30307;SDS011;17114;52.314;8.910;2022-08-07T07:05:36;10.32;;;6.28;;
30307;SDS011;17114;52.314;8.910;2022-08-07T07:08:27;11.63;;;6.53;;
30307;SDS011;17114;52.314;8.910;2022-08-07T07:10:58;7.78;;;6.25;;
30307;SDS011;17114;52.314;8.910;2022-08-07T07:13:36;11.27;;;6.35;;
30307;SDS011;17114;52.314;8.910;2022-08-07T07:16:26;11.32;;;6.53;;
30307;SDS011;17114;52.314;8.910;2022-08-07T07:19:00;10.32;;;5.32;;
30307;SDS011;17114;52.314;8.910;2022-08-07T07:21:50;6.45;;;5.10;;
30307;SDS011;17114;52.314;8.910;2022-08-07T07:24:37;7.97;;;5.20;;
30307;SDS011;17114;52.314;8.910;2022-08-07T07:27:25;6.70;;;4.90;;
30307;SDS011;17114;52.314;8.910;2022-08-07T07:30:20;7.80;;;5.13;;
30307;SDS011;17114;52.314;8.910;2022-08-07T07:33:03;6.43;;;4.63;;
30307;SDS011;17114;52.314;8.910;2022-08-07T07:35:33;8.20;;;4.88;;
30307;SDS011;17114;52.314;8.910;2022-08-07T07:38:22;5.15;;;4.32;;
30307;SDS011;17114;52.314;8.910;2022-08-07T07:40:56;6.03;;;4.32;;
30307;SDS011;17114;52.314;8.910;2022-08-07T07:43:29;6.28;;;4.18;;
30307;SDS011;17114;52.314;8.910;2022-08-07T07:46:25;5.57;;;4.28;;
30307;SDS011;17114;52.314;8.910;2022-08-07T07:49:17;5.90;;;4.50;;
30307;SDS011;17114;52.314;8.910;2022-08-07T07:52:05;5.28;;;4.22;;
30307;SDS011;17114;52.314;8.910;2022-08-07T07:54:34;6.15;;;4.95;;
30307;SDS011;17114;52.314;8.910;2022-08-07T07:57:02;5.22;;;3.65;;
30307;SDS011;17114;52.314;8.910;2022-08-07T07:59:30;7.50;;;4.35;;
30307;SDS011;17114;52.314;8.910;2022-08-07T08:02:18;5.95;;;3.55;;
30307;SDS011;17114;52.314;8.910;2022-08-07T08:05:04;6.65;;;3.80;;
30307;SDS011;17114;52.314;8.910;2022-08-07T08:07:40;4.22;;;3.60;;
30307;SDS011;17114;52.314;8.910;2022-08-07T08:10:26;5.78;;;3.95;;
30307;SDS011;17114;52.314;8.910;2022-08-07T08:13:04;7.65;;;3.60;;
30307;SDS011;17114;52.314;8.910;2022-08-07T08:15:40;5.55;;;3.72;;
30307;SDS011;17114;52.314;8.910;2022-08-07T08:18:25;5.53;;;3.60;;
30307;SDS011;17114;52.314;8.910;2022-08-07T08:20:56;8.60;;;3.97;;
30307;SDS011;17114;52.314;8.910;2022-08-07T08:23:27;6.15;;;3.80;;
30307;SDS011;17114;52.314;8.910;2022-08-07T08:26:15;4.03;;;3.20;;
30307;SDS011;17114;52.314;8.910;2022-08-07T08:29:02;4.40;;;3.33;;
30307;SDS011;17114;52.314;8.910;2022-08-07T08:31:32;4.85;;;3.60;;
30307;SDS011;17114;52.314;8.910;2022-08-07T08:34:21;6.80;;;3.20;;
30307;SDS011;17114;52.314;8.910;2022-08-07T08:36:54;4.63;;;3.00;;
30307;SDS011;17114;52.314;8.910;2022-08-07T08:39:24;6.25;;;2.80;;
30307;SDS011;17114;52.314;8.910;2022-08-07T08:42:06;6.85;;;3.28;;
30307;SDS011;17114;52.314;8.910;2022-08-07T08:44:47;4.43;;;2.90;;
30307;SDS011;17114;52.314;8.910;2022-08-07T08:50:21;3.22;;;2.47;;
30307;SDS011;17114;52.314;8.910;2022-08-07T08:55:56;4.70;;;1.92;;
30307;SDS011;17114;52.314;8.910;2022-08-07T09:10:26;1.98;;;1.60;;
30307;SDS011;17114;52.314;8.910;2022-08-07T09:13:19;2.85;;;1.50;;
30307;SDS011;17114;52.314;8.910;2022-08-07T09:22:17;4.80;;;1.92;;
30307;SDS011;17114;52.314;8.910;2022-08-07T09:28:39;2.53;;;1.70;;
30307;SDS011;17114;52.314;8.910;2022-08-07T09:31:44;2.90;;;1.70;;
30307;SDS011;17114;52.314;8.910;2022-08-07T09:34:28;2.80;;;1.60;;
30307;SDS011;17114;52.314;8.910;2022-08-07T09:37:13;3.35;;;1.63;;
30307;SDS011;17114;52.314;8.910;2022-08-07T09:40:34;3.30;;;1.50;;
30307;SDS011;17114;52.314;8.910;2022-08-07T09:52:52;3.00;;;1.30;;
30307;SDS011;17114;52.314;8.910;2022-08-07T09:58:27;2.83;;;1.50;;
30307;SDS011;17114;52.314;8.910;2022-08-07T10:03:45;1.80;;;1.20;;
30307;SDS011;17114;52.314;8.910;2022-08-07T10:12:55;3.38;;;1.25;;
30307;SDS011;17114;52.314;8.910;2022-08-07T10:15:42;1.48;;;1.17;;
30307;SDS011;17114;52.314;8.910;2022-08-07T10:18:50;1.92;;;1.17;;
30307;SDS011;17114;52.314;8.910;2022-08-07T10:27:30;1.83;;;1.17;;
30307;SDS011;17114;52.314;8.910;2022-08-07T10:30:17;4.68;;;1.13;;
30307;SDS011;17114;52.314;8.910;2022-08-07T10:47:12;2.30;;;1.30;;
30307;SDS011;17114;52.314;8.910;2022-08-07T10:50:25;4.43;;;1.27;;
30307;SDS011;17114;52.314;8.910;2022-08-07T11:02:17;2.75;;;1.48;;
30307;SDS011;17114;52.314;8.910;2022-08-07T11:07:48;4.70;;;1.92;;
30307;SDS011;17114;52.314;8.910;2022-08-07T11:10:38;1.10;;;1.00;;
30307;SDS011;17114;52.314;8.910;2022-08-07T11:13:24;2.22;;;1.33;;
30307;SDS011;17114;52.314;8.910;2022-08-07T11:16:35;2.08;;;1.40;;
30307;SDS011;17114;52.314;8.910;2022-08-07T11:19:11;3.00;;;1.20;;
30307;SDS011;17114;52.314;8.910;2022-08-07T11:25:33;2.30;;;1.10;;
30307;SDS011;17114;52.314;8.910;2022-08-07T11:28:24;4.15;;;1.40;;
30307;SDS011;17114;52.314;8.910;2022-08-07T11:30:57;2.92;;;1.33;;
30307;SDS011;17114;52.314;8.910;2022-08-07T11:36:29;3.70;;;1.27;;
30307;SDS011;17114;52.314;8.910;2022-08-07T11:39:29;2.22;;;1.27;;
30307;SDS011;17114;52.314;8.910;2022-08-07T11:45:27;1.55;;;1.10;;
30307;SDS011;17114;52.314;8.910;2022-08-07T11:48:28;2.05;;;1.27;;
30307;SDS011;17114;52.314;8.910;2022-08-07T11:54:11;2.08;;;0.95;;
30307;SDS011;17114;52.314;8.910;2022-08-07T12:02:46;1.83;;;1.20;;
30307;SDS011;17114;52.314;8.910;2022-08-07T12:05:28;2.92;;;1.30;;
30307;SDS011;17114;52.314;8.910;2022-08-07T12:08:25;2.72;;;1.30;;
30307;SDS011;17114;52.314;8.910;2022-08-07T12:16:53;1.48;;;1.20;;
30307;SDS011;17114;52.314;8.910;2022-08-07T12:19:55;3.55;;;1.40;;
30307;SDS011;17114;52.314;8.910;2022-08-07T12:22:45;1.48;;;1.20;;
30307;SDS011;17114;52.314;8.910;2022-08-07T12:25:44;2.22;;;1.40;;
30307;SDS011;17114;52.314;8.910;2022-08-07T12:28:54;1.77;;;1.40;;
30307;SDS011;17114;52.314;8.910;2022-08-07T12:34:30;1.42;;;1.27;;
30307;SDS011;17114;52.314;8.910;2022-08-07T12:37:01;2.53;;;1.40;;
30307;SDS011;17114;52.314;8.910;2022-08-07T12:39:43;1.90;;;1.25;;
30307;SDS011;17114;52.314;8.910;2022-08-07T12:42:19;2.47;;;1.30;;
30307;SDS011;17114;52.314;8.910;2022-08-07T12:44:57;2.28;;;1.40;;
30307;SDS011;17114;52.314;8.910;2022-08-07T12:47:44;2.50;;;1.40;;
30307;SDS011;17114;52.314;8.910;2022-08-07T12:53:43;1.58;;;1.00;;
30307;SDS011;17114;52.314;8.910;2022-08-07T12:56:40;1.73;;;1.13;;
30307;SDS011;17114;52.314;8.910;2022-08-07T12:59:22;2.03;;;1.17;;
30307;SDS011;17114;52.314;8.910;2022-08-07T13:10:55;1.80;;;1.40;;
30307;SDS011;17114;52.314;8.910;2022-08-07T13:14:28;1.63;;;1.27;;
30307;SDS011;17114;52.314;8.910;2022-08-07T13:17:16;3.38;;;1.67;;
30307;SDS011;17114;52.314;8.910;2022-08-07T13:20:07;2.42;;;1.50;;
30307;SDS011;17114;52.314;8.910;2022-08-07T13:22:44;4.20;;;1.38;;
30307;SDS011;17114;52.314;8.910;2022-08-07T13:25:29;1.70;;;1.23;;
30307;SDS011;17114;52.314;8.910;2022-08-07T13:28:11;1.83;;;1.30;;
30307;SDS011;17114;52.314;8.910;2022-08-07T13:31:09;3.35;;;1.63;;
30307;SDS011;17114;52.314;8.910;2022-08-07T13:36:45;2.25;;;1.70;;
30307;SDS011;17114;52.314;8.910;2022-08-07T13:42:06;1.20;;;1.10;;
30307;SDS011;17114;52.314;8.910;2022-08-07T13:44:36;1.92;;;1.10;;
30307;SDS011;17114;52.314;8.910;2022-08-07T13:47:05;2.08;;;1.60;;
30307;SDS011;17114;52.314;8.910;2022-08-07T13:49:45;2.70;;;1.50;;
30307;SDS011;17114;52.314;8.910;2022-08-07T13:52:37;2.90;;;1.50;;
30307;SDS011;17114;52.314;8.910;2022-08-07T13:55:12;2.13;;;1.20;;
30307;SDS011;17114;52.314;8.910;2022-08-07T13:57:57;2.17;;;1.50;;
30307;SDS011;17114;52.314;8.910;2022-08-07T14:01:00;2.00;;;1.80;;
30307;SDS011;17114;52.314;8.910;2022-08-07T14:03:45;2.40;;;1.60;;
30307;SDS011;17114;52.314;8.910;2022-08-07T14:06:35;3.20;;;1.35;;
30307;SDS011;17114;52.314;8.910;2022-08-07T14:09:07;2.78;;;1.38;;
30307;SDS011;17114;52.314;8.910;2022-08-07T14:12:01;1.90;;;1.30;;
30307;SDS011;17114;52.314;8.910;2022-08-07T14:14:40;2.45;;;1.48;;
30307;SDS011;17114;52.314;8.910;2022-08-07T14:17:20;2.35;;;1.40;;
30307;SDS011;17114;52.314;8.910;2022-08-07T14:20:13;2.00;;;1.70;;
30307;SDS011;17114;52.314;8.910;2022-08-07T14:26:16;1.40;;;1.20;;
30307;SDS011;17114;52.314;8.910;2022-08-07T14:28:57;2.25;;;1.40;;
30307;SDS011;17114;52.314;8.910;2022-08-07T14:31:36;3.95;;;1.60;;
30307;SDS011;17114;52.314;8.910;2022-08-07T14:34:23;2.10;;;1.50;;
30307;SDS011;17114;52.314;8.910;2022-08-07T14:36:55;3.67;;;1.70;;
30307;SDS011;17114;52.314;8.910;2022-08-07T14:39:29;1.75;;;1.50;;
30307;SDS011;17114;52.314;8.910;2022-08-07T14:42:22;2.97;;;1.60;;
30307;SDS011;17114;52.314;8.910;2022-08-07T14:44:58;3.35;;;1.73;;
30307;SDS011;17114;52.314;8.910;2022-08-07T14:47:48;1.83;;;1.42;;
30307;SDS011;17114;52.314;8.910;2022-08-07T14:50:23;3.15;;;1.70;;
30307;SDS011;17114;52.314;8.910;2022-08-07T14:52:54;2.35;;;1.50;;
30307;SDS011;17114;52.314;8.910;2022-08-07T14:55:33;1.95;;;1.55;;
30307;SDS011;17114;52.314;8.910;2022-08-07T14:58:26;2.25;;;1.58;;
30307;SDS011;17114;52.314;8.910;2022-08-07T15:00:58;3.85;;;1.80;;
30307;SDS011;17114;52.314;8.910;2022-08-07T15:03:46;2.45;;;1.67;;
30307;SDS011;17114;52.314;8.910;2022-08-07T15:06:24;2.33;;;1.50;;
30307;SDS011;17114;52.314;8.910;2022-08-07T15:11:23;2.13;;;1.55;;
30307;SDS011;17114;52.314;8.910;2022-08-07T15:14:15;1.77;;;1.40;;
30307;SDS011;17114;52.314;8.910;2022-08-07T15:16:56;3.13;;;1.70;;
30307;SDS011;17114;52.314;8.910;2022-08-07T15:19:27;2.80;;;1.70;;
30307;SDS011;17114;52.314;8.910;2022-08-07T15:22:19;2.17;;;1.60;;
30307;SDS011;17114;52.314;8.910;2022-08-07T15:25:22;3.42;;;1.50;;
30307;SDS011;17114;52.314;8.910;2022-08-07T15:28:02;3.50;;;1.70;;
30307;SDS011;17114;52.314;8.910;2022-08-07T15:30:53;1.58;;;1.48;;
30307;SDS011;17114;52.314;8.910;2022-08-07T15:33:49;2.17;;;1.77;;
30307;SDS011;17114;52.314;8.910;2022-08-07T15:36:24;2.35;;;1.52;;
30307;SDS011;17114;52.314;8.910;2022-08-07T15:39:13;2.00;;;1.50;;
30307;SDS011;17114;52.314;8.910;2022-08-07T15:41:58;1.95;;;1.63;;
30307;SDS011;17114;52.314;8.910;2022-08-07T15:47:17;3.92;;;1.80;;
30307;SDS011;17114;52.314;8.910;2022-08-07T15:50:08;2.47;;;1.95;;
30307;SDS011;17114;52.314;8.910;2022-08-07T15:53:07;2.78;;;1.70;;
30307;SDS011;17114;52.314;8.910;2022-08-07T15:55:43;3.70;;;1.77;;
30307;SDS011;17114;52.314;8.910;2022-08-07T15:58:30;2.10;;;1.75;;
30307;SDS011;17114;52.314;8.910;2022-08-07T16:01:06;2.42;;;1.83;;
30307;SDS011;17114;52.314;8.910;2022-08-07T16:03:47;2.25;;;1.70;;
30307;SDS011;17114;52.314;8.910;2022-08-07T16:06:28;3.22;;;2.00;;
30307;SDS011;17114;52.314;8.910;2022-08-07T16:09:01;4.10;;;2.08;;
30307;SDS011;17114;52.314;8.910;2022-08-07T16:14:58;3.60;;;1.73;;
30307;SDS011;17114;52.314;8.910;2022-08-07T16:18:10;3.03;;;1.70;;
30307;SDS011;17114;52.314;8.910;2022-08-07T16:21:19;2.22;;;1.80;;
30307;SDS011;17114;52.314;8.910;2022-08-07T16:24:31;1.67;;;1.58;;
30307;SDS011;17114;52.314;8.910;2022-08-07T16:32:49;1.52;;;1.40;;
30307;SDS011;17114;52.314;8.910;2022-08-07T16:35:47;3.33;;;1.75;;
30307;SDS011;17114;52.314;8.910;2022-08-07T16:38:51;1.92;;;1.70;;
30307;SDS011;17114;52.314;8.910;2022-08-07T16:53:44;2.88;;;1.70;;
30307;SDS011;17114;52.314;8.910;2022-08-07T16:56:48;5.60;;;1.60;;
30307;SDS011;17114;52.314;8.910;2022-08-07T17:08:43;9.35;;;1.70;;
30307;SDS011;17114;52.314;8.910;2022-08-07T17:11:45;2.15;;;1.60;;
30307;SDS011;17114;52.314;8.910;2022-08-07T17:20:28;4.05;;;1.67;;
30307;SDS011;17114;52.314;8.910;2022-08-07T17:23:00;1.88;;;1.70;;
30307;SDS011;17114;52.314;8.910;2022-08-07T17:26:31;6.70;;;1.90;;
30307;SDS011;17114;52.314;8.910;2022-08-07T17:31:37;3.38;;;2.20;;
30307;SDS011;17114;52.314;8.910;2022-08-07T17:34:35;3.83;;;1.75;;
30307;SDS011;17114;52.314;8.910;2022-08-07T17:37:37;2.95;;;1.90;;
30307;SDS011;17114;52.314;8.910;2022-08-07T17:41:00;4.07;;;2.00;;
30307;SDS011;17114;52.314;8.910;2022-08-07T17:43:50;3.28;;;1.80;;
30307;SDS011;17114;52.314;8.910;2022-08-07T17:46:36;3.20;;;1.90;;
30307;SDS011;17114;52.314;8.910;2022-08-07T17:49:22;3.10;;;1.90;;
30307;SDS011;17114;52.314;8.910;2022-08-07T17:52:57;3.25;;;1.90;;
30307;SDS011;17114;52.314;8.910;2022-08-07T17:58:06;2.42;;;2.00;;
30307;SDS011;17114;52.314;8.910;2022-08-07T18:00:56;3.28;;;1.90;;
30307;SDS011;17114;52.314;8.910;2022-08-07T18:03:26;3.28;;;2.00;;
30307;SDS011;17114;52.314;8.910;2022-08-07T18:06:22;3.15;;;2.00;;
30307;SDS011;17114;52.314;8.910;2022-08-07T18:09:08;4.22;;;2.45;;
30307;SDS011;17114;52.314;8.910;2022-08-07T18:15:27;4.28;;;2.10;;
30307;SDS011;17114;52.314;8.910;2022-08-07T18:24:45;3.03;;;1.77;;
30307;SDS011;17114;52.314;8.910;2022-08-07T18:36:01;3.50;;;2.10;;
30307;SDS011;17114;52.314;8.910;2022-08-07T18:41:41;2.83;;;2.17;;
30307;SDS011;17114;52.314;8.910;2022-08-07T18:59:10;4.97;;;1.80;;
30307;SDS011;17114;52.314;8.910;2022-08-07T19:08:33;5.75;;;2.38;;
30307;SDS011;17114;52.314;8.910;2022-08-07T19:15:13;4.10;;;2.30;;
30307;SDS011;17114;52.314;8.910;2022-08-07T19:17:57;5.90;;;2.10;;
30307;SDS011;17114;52.314;8.910;2022-08-07T19:20:40;6.03;;;2.20;;
30307;SDS011;17114;52.314;8.910;2022-08-07T19:23:35;3.72;;;2.20;;
30307;SDS011;17114;52.314;8.910;2022-08-07T19:26:25;3.90;;;2.25;;
30307;SDS011;17114;52.314;8.910;2022-08-07T19:29:19;3.67;;;2.42;;
30307;SDS011;17114;52.314;8.910;2022-08-07T19:32:10;4.13;;;2.58;;
30307;SDS011;17114;52.314;8.910;2022-08-07T19:34:58;3.40;;;2.40;;
30307;SDS011;17114;52.314;8.910;2022-08-07T19:37:28;4.90;;;2.72;;
30307;SDS011;17114;52.314;8.910;2022-08-07T19:40:17;4.30;;;2.30;;
30307;SDS011;17114;52.314;8.910;2022-08-07T19:43:00;3.08;;;2.30;;
30307;SDS011;17114;52.314;8.910;2022-08-07T19:46:03;2.70;;;2.20;;
30307;SDS011;17114;52.314;8.910;2022-08-07T19:48:39;3.13;;;2.33;;
30307;SDS011;17114;52.314;8.910;2022-08-07T19:51:20;4.53;;;2.10;;
30307;SDS011;17114;52.314;8.910;2022-08-07T19:54:08;4.20;;;2.08;;
30307;SDS011;17114;52.314;8.910;2022-08-07T19:56:58;3.45;;;2.08;;
30307;SDS011;17114;52.314;8.910;2022-08-07T19:59:55;4.68;;;2.33;;
30307;SDS011;17114;52.314;8.910;2022-08-07T20:02:50;2.85;;;2.25;;
30307;SDS011;17114;52.314;8.910;2022-08-07T20:05:31;3.42;;;2.30;;
30307;SDS011;17114;52.314;8.910;2022-08-07T20:08:22;3.13;;;2.15;;
30307;SDS011;17114;52.314;8.910;2022-08-07T20:10:57;2.85;;;2.33;;
30307;SDS011;17114;52.314;8.910;2022-08-07T20:13:50;3.40;;;2.30;;